Time;durP1;ratioP1;P1;durP2;ratioP2;P2;SDS_P1;SDS_P2;PMS_P1;PMS_P2;Temp;Humidity;BMP_temperature;BMP_pressure;BME280_temperature;BME280_humidity;BME280_pressure;Samples;Min_cycle;Max_cycle;Signal;HPM_P1;HPM_P2
2022/07/06 00:00:22;;;;;;;10.38;6.55;;;;;;;22.32;55.83;99975.16;1778490;80;21224;-80
2022/07/06 00:03:28;;;;;;;11.22;6.20;;;;;;;22.27;55.81;99964.80;1777642;80;21459;-81
2022/07/06 00:06:34;;;;;;;14.95;6.10;;;;;;;22.25;55.95;99966.14;1778387;80;21185;-81
2022/07/06 00:09:40;;;;;;;11.38;6.28;;;;;;;22.19;56.26;99973.05;1778506;80;21240;-81
2022/07/06 00:12:50;;;;;;;10.53;6.12;;;;;;;22.11;56.47;99967.97;1779315;80;21153;-81
2022/07/06 00:15:56;;;;;;;15.60;6.50;;;;;;;22.06;56.69;99960.89;1777139;80;21760;-81
2022/07/06 00:19:02;;;;;;;11.73;6.83;;;;;;;22.02;56.98;99962.53;1777149;80;21759;-81
2022/07/06 00:22:08;;;;;;;10.93;6.42;;;;;;;21.99;57.17;99963.05;1778983;80;21189;-81
2022/07/06 00:25:15;;;;;;;15.58;6.60;;;;;;;21.97;57.21;99958.27;1778357;80;21338;-81
2022/07/06 00:28:22;;;;;;;13.30;7.08;;;;;;;21.93;57.33;99952.95;1777513;80;21225;-81
2022/07/06 00:31:28;;;;;;;9.55;6.25;;;;;;;21.88;57.46;99953.73;1779157;80;21773;-81
2022/07/06 00:34:35;;;;;;;18.65;6.35;;;;;;;21.85;57.70;99955.63;1778629;80;21185;-81
2022/07/06 00:37:40;;;;;;;13.55;6.92;;;;;;;21.79;57.94;99953.89;1778106;80;21221;-81
2022/07/06 00:40:45;;;;;;;15.65;6.78;;;;;;;21.74;58.32;99952.44;1779131;80;21185;-81
2022/07/06 00:44:02;;;;;;;11.75;6.55;;;;;;;21.67;58.59;99951.22;1778425;80;21224;-81
2022/07/06 00:47:02;;;;;;;11.83;6.53;;;;;;;21.62;58.92;99946.14;1778650;80;21169;-81
2022/07/06 00:50:22;;;;;;;8.98;6.42;;;;;;;21.57;59.12;99952.48;1779198;80;21705;-81
2022/07/06 00:53:29;;;;;;;11.25;7.10;;;;;;;21.53;59.27;99943.51;1778599;80;21169;-83
2022/07/06 00:56:38;;;;;;;12.55;7.30;;;;;;;21.49;59.39;99955.69;1764463;80;21261;-81
2022/07/06 00:59:44;;;;;;;9.45;7.05;;;;;;;21.46;59.40;99942.31;1801179;79;21263;-81
2022/07/06 01:02:50;;;;;;;8.88;7.53;;;;;;;21.46;59.31;99945.65;1764624;81;21162;-81
2022/07/06 01:05:57;;;;;;;16.00;7.08;;;;;;;21.44;59.28;99942.55;1802754;79;21224;-80
2022/07/06 01:09:02;;;;;;;9.95;7.37;;;;;;;21.43;59.28;99940.03;1746908;81;21237;-81
2022/07/06 01:12:08;;;;;;;14.20;7.10;;;;;;;21.38;59.44;99949.15;1801172;79;21240;-81
2022/07/06 01:15:21;;;;;;;15.25;7.50;;;;;;;21.32;59.81;99943.78;1763031;81;21197;-80
2022/07/06 01:18:27;;;;;;;14.65;7.92;;;;;;;21.29;60.03;99938.69;1802124;79;21213;-81
2022/07/06 01:21:33;;;;;;;14.43;7.12;;;;;;;21.27;60.23;99950.63;1764532;81;21193;-83
2022/07/06 01:24:26;;;;;;;;;;;;;;;21.26;60.31;99951.70;1805400;79;21184;-83
2022/07/06 01:27:34;;;;;;;14.95;7.30;;;;;;;21.23;60.38;99948.90;1766681;81;20213;-83
2022/07/06 01:30:33;;;;;;;11.68;7.55;;;;;;;21.19;60.57;99954.13;1764649;81;21201;-83
2022/07/06 01:33:41;;;;;;;14.10;7.50;;;;;;;21.17;60.79;99956.33;1802723;79;21225;-81
2022/07/06 01:36:46;;;;;;;16.95;7.90;;;;;;;21.16;60.90;99953.78;1764567;81;21177;-81
2022/07/06 01:39:52;;;;;;;12.73;7.55;;;;;;;21.14;61.07;99954.05;1801256;79;21205;-81
2022/07/06 01:42:59;;;;;;;14.58;7.55;;;;;;;21.16;61.12;99960.73;1766398;81;21202;-81
2022/07/06 01:46:04;;;;;;;11.48;8.18;;;;;;;21.14;61.26;99958.22;1764708;81;21165;-81
2022/07/06 01:49:11;;;;;;;14.65;8.05;;;;;;;21.13;61.36;99955.16;1801790;79;21181;-81
2022/07/06 01:52:16;;;;;;;18.05;8.55;;;;;;;21.13;61.29;99957.09;1766966;81;21214;-81
2022/07/06 01:55:21;;;;;;;14.47;8.43;;;;;;;21.11;61.33;99957.33;1764526;81;21252;-81
2022/07/06 01:58:27;;;;;;;13.95;8.33;;;;;;;21.09;61.34;99960.92;1801763;79;21762;-81
2022/07/06 02:01:33;;;;;;;18.15;8.85;;;;;;;21.09;61.30;99954.52;1764621;81;21244;-81
2022/07/06 02:04:40;;;;;;;16.50;8.50;;;;;;;21.13;61.23;99955.70;1802651;79;21720;-81
2022/07/06 02:07:45;;;;;;;16.07;9.25;;;;;;;21.29;60.90;99962.33;1767043;81;21797;-81
2022/07/06 02:10:51;;;;;;;13.45;8.08;;;;;;;21.49;60.41;99964.59;1764562;81;21181;-81
2022/07/06 02:14:00;;;;;;;13.30;8.18;;;;;;;21.71;59.76;99970.20;1763001;81;21217;-81
2022/07/06 02:17:06;;;;;;;18.07;9.20;;;;;;;21.94;59.06;99962.98;1802635;79;21228;-81
2022/07/06 02:20:13;;;;;;;15.68;8.75;;;;;;;22.17;58.34;99960.51;1765608;80;21212;-81
2022/07/06 02:23:12;;;;;;;17.62;8.93;;;;;;;22.41;57.57;99962.44;1801172;79;21177;-81
2022/07/06 02:26:05;;;;;;;10.75;8.35;;;;;;;22.65;56.76;99958.22;1767122;81;21174;-81
2022/07/06 02:29:11;;;;;;;11.80;9.23;;;;;;;22.90;56.03;99960.41;1763776;81;21217;-81
2022/07/06 02:32:16;;;;;;;13.58;8.60;;;;;;;23.17;55.24;99953.94;1802708;79;21189;-81
2022/07/06 02:35:23;;;;;;;17.42;8.43;;;;;;;23.52;54.38;99955.27;1767109;81;21182;-81
2022/07/06 02:38:28;;;;;;;13.25;8.78;;;;;;;23.92;53.20;99956.91;1802685;79;21216;-82
2022/07/06 02:41:36;;;;;;;19.12;9.40;;;;;;;24.28;51.97;99956.17;1766949;81;21789;-82
2022/07/06 02:44:41;;;;;;;14.35;9.55;;;;;;;24.59;51.10;99959.36;1765884;81;21749;-82
2022/07/06 02:47:48;;;;;;;15.68;9.45;;;;;;;24.96;50.10;99958.27;1802662;79;21792;-82
2022/07/06 02:50:55;;;;;;;19.20;10.00;;;;;;;25.33;49.02;99952.39;1780000;79;21181;-82
2022/07/06 02:54:02;;;;;;;22.60;9.98;;;;;;;25.63;48.23;99950.07;1766885;81;21182;-82
2022/07/06 02:57:07;;;;;;;19.65;11.10;;;;;;;25.92;48.18;99952.23;1802669;79;21791;-82
2022/07/06 03:00:14;;;;;;;20.75;11.18;;;;;;;26.19;46.92;99954.08;1765722;81;21261;-82
2022/07/06 03:03:22;;;;;;;19.87;11.65;;;;;;;26.46;46.08;99952.84;1802546;79;21174;-82
2022/07/06 03:06:29;;;;;;;19.98;11.65;;;;;;;26.68;45.30;99954.66;1765632;81;21221;-82
2022/07/06 03:09:35;;;;;;;19.80;11.05;;;;;;;26.87;44.83;99958.17;1801155;79;21197;-82
2022/07/06 03:12:43;;;;;;;23.07;11.15;;;;;;;27.10;44.27;99961.66;1765499;81;21241;-82
2022/07/06 03:15:49;;;;;;;17.02;10.50;;;;;;;27.29;43.81;99953.88;1801120;79;21209;-82
2022/07/06 03:18:55;;;;;;;22.40;10.40;;;;;;;27.47;43.34;99948.91;1766845;81;21226;-82
2022/07/06 03:22:01;;;;;;;21.90;11.00;;;;;;;27.59;43.09;99947.12;1802537;79;21805;-81
2022/07/06 03:25:06;;;;;;;98.90;16.40;;;;;;;27.65;43.07;99952.94;1766881;81;21683;-81
2022/07/06 03:28:13;;;;;;;35.50;12.50;;;;;;;27.84;42.99;99949.65;1802615;79;21181;-82
2022/07/06 03:31:19;;;;;;;75.45;16.90;;;;;;;27.84;42.99;99949.65;1765688;81;21221;-81
2022/07/06 03:34:24;;;;;;;25.15;10.80;;;;;;;27.97;42.74;99949.50;1802520;79;21173;-82
2022/07/06 03:37:30;;;;;;;30.50;12.30;;;;;;;28.05;42.48;99949.41;1766949;81;21182;-82
2022/07/06 03:40:36;;;;;;;21.62;11.90;;;;;;;28.14;42.62;99943.39;1755821;81;21248;-81
2022/07/06 03:43:41;;;;;;;28.87;11.55;;;;;;;28.25;42.23;99949.96;1755070;81;21244;-82
2022/07/06 03:46:52;;;;;;;15.65;10.68;;;;;;;28.28;42.17;99954.16;1802437;79;21741;-82
2022/07/06 03:49:57;;;;;;;17.10;10.70;;;;;;;28.30;41.88;99953.27;1766778;81;21733;-82
2022/07/06 03:53:04;;;;;;;18.15;10.93;;;;;;;28.21;41.95;99957.90;1802495;79;21182;-81
2022/07/06 03:56:28;;;;;;;47.50;13.05;;;;;;;28.10;42.46;99952.98;1766839;81;21178;-81
2022/07/06 03:59:35;;;;;;;29.40;13.80;;;;;;;28.15;42.24;99954.32;1769242;80;21193;-82
2022/07/06 04:02:41;;;;;;;25.23;13.45;;;;;;;28.15;41.87;99950.67;1779034;80;21165;-82
2022/07/06 04:05:49;;;;;;;21.35;12.60;;;;;;;28.19;41.76;99946.13;1758985;81;21200;-82
2022/07/06 04:08:56;;;;;;;23.30;12.75;;;;;;;28.15;41.71;99948.70;1758998;81;21189;-82
2022/07/06 04:12:03;;;;;;;22.75;13.28;;;;;;;28.15;41.53;99947.30;1777581;80;21240;-81
2022/07/06 04:15:10;;;;;;;32.48;14.73;;;;;;;28.21;41.65;99947.48;1777928;80;21217;-81
2022/07/06 04:18:17;;;;;;;18.77;12.33;;;;;;;28.26;41.51;99944.59;1759224;81;21204;-82
2022/07/06 04:21:23;;;;;;;21.37;12.40;;;;;;;28.42;40.96;99946.67;1778308;80;21213;-82
2022/07/06 04:24:30;;;;;;;21.17;12.00;;;;;;;28.42;40.96;99946.67;1759108;81;21240;-82
2022/07/06 04:27:35;;;;;;;20.37;11.75;;;;;;;28.44;40.98;99954.80;1759301;81;21195;-81
2022/07/06 04:30:42;;;;;;;27.25;11.45;;;;;;;28.40;41.19;99950.91;1778675;80;21260;-81
2022/07/06 04:33:48;;;;;;;25.02;12.35;;;;;;;28.43;41.04;99947.50;1779102;80;21186;-82
2022/07/06 04:36:54;;;;;;;21.02;12.00;;;;;;;28.50;40.80;99949.35;1758813;81;21823;-81
2022/07/06 04:40:01;;;;;;;18.85;11.50;;;;;;;28.56;40.82;99948.70;1778634;80;21237;-81
2022/07/06 04:43:07;;;;;;;15.58;8.95;;;;;;;28.66;40.96;99955.03;1757309;81;21188;-81
2022/07/06 04:46:12;;;;;;;13.00;9.85;;;;;;;29.03;41.13;99964.61;1771706;80;21200;-81
2022/07/06 04:49:18;;;;;;;18.32;9.78;;;;;;;29.05;41.37;99959.48;1734658;81;21157;-81
2022/07/06 04:52:24;;;;;;;18.80;10.58;;;;;;;29.05;41.37;99959.48;1756525;81;21193;-81
2022/07/06 04:55:29;;;;;;;22.48;9.85;;;;;;;29.09;41.26;99982.24;1757180;81;22479;-81
2022/07/06 04:58:35;;;;;;;47.93;15.98;;;;;;;28.98;42.11;99965.52;1755504;80;21505;-81
2022/07/06 05:01:44;;;;;;;34.90;14.70;;;;;;;28.95;42.12;99968.95;1704967;83;21497;-80
2022/07/06 05:04:49;;;;;;;35.92;14.95;;;;;;;28.97;41.98;99960.18;1768919;79;21193;-80
2022/07/06 05:07:56;;;;;;;36.00;15.55;;;;;;;28.97;40.98;99965.81;1772760;79;22040;-80
2022/07/06 05:11:02;;;;;;;19.92;11.33;;;;;;;28.97;41.08;99971.44;1777848;79;21772;-80
2022/07/06 05:14:10;;;;;;;20.43;11.95;;;;;;;28.97;41.08;99971.44;1775057;79;21162;-80
2022/07/06 05:17:19;;;;;;;15.30;11.60;;;;;;;28.99;41.36;99968.59;1781259;79;21263;-80
2022/07/06 05:20:28;;;;;;;20.95;11.25;;;;;;;29.06;41.58;99971.01;1781599;79;21954;-80
2022/07/06 05:23:34;;;;;;;18.50;10.58;;;;;;;29.03;41.17;99974.46;1780414;79;21562;-80
2022/07/06 05:26:34;;;;;;;15.38;10.68;;;;;;;29.11;41.67;99972.33;1771136;79;21824;-81
2022/07/06 05:29:40;;;;;;;16.60;9.90;;;;;;;29.29;41.27;99968.63;1783308;79;21157;-80
2022/07/06 05:32:45;;;;;;;20.75;10.38;;;;;;;29.45;40.60;99966.94;1775821;79;21895;-80
2022/07/06 05:35:53;;;;;;;21.85;9.98;;;;;;;29.62;40.21;99967.78;1769139;79;21828;-80
2022/07/06 05:38:58;;;;;;;16.73;9.43;;;;;;;29.81;39.31;99961.48;1775464;79;21182;-80
2022/07/06 05:42:04;;;;;;;16.20;9.10;;;;;;;29.96;39.10;99959.75;1774324;79;21161;-80
2022/07/06 05:45:10;;;;;;;14.30;9.38;;;;;;;30.14;37.82;99961.40;1778363;79;21169;-80
2022/07/06 05:51:40;;;;;;;17.00;8.53;;;;;;;30.23;37.09;99957.52;1782382;79;21647;-80
2022/07/06 05:54:47;;;;;;;14.73;9.18;;;;;;;30.26;35.84;99959.72;1780831;79;21566;-80
2022/07/06 05:57:53;;;;;;;19.75;8.95;;;;;;;30.32;36.00;99950.56;1786737;79;21701;-80
2022/07/06 06:00:59;;;;;;;21.60;8.80;;;;;;;30.44;36.43;99945.22;1767985;79;21165;-80
2022/07/06 06:04:07;;;;;;;12.70;7.55;;;;;;;30.49;35.61;99947.09;1776762;79;21160;-80
2022/07/06 06:07:12;;;;;;;19.27;8.35;;;;;;;30.51;35.43;99946.17;1777886;79;21141;-80
2022/07/06 06:10:18;;;;;;;24.37;8.85;;;;;;;30.59;36.46;99949.66;1797054;79;21161;-80
2022/07/06 06:13:27;;;;;;;;;;;;;;;30.69;35.56;99956.47;1768658;81;21299;-80
2022/07/06 06:16:33;;;;;;;22.00;8.35;;;;;;;30.76;35.71;99951.81;1768544;81;20249;-80
2022/07/06 06:19:38;;;;;;;17.87;8.90;;;;;;;30.80;35.57;99948.03;1795787;79;21248;-80
2022/07/06 06:23:07;;;;;;;12.20;8.28;;;;;;;30.90;36.18;99947.52;1786597;79;21201;-80
2022/07/06 06:26:11;;;;;;;13.70;8.45;;;;;;;30.98;35.48;99950.41;1783348;79;21205;-81
2022/07/06 06:29:17;;;;;;;18.40;8.50;;;;;;;31.02;34.68;99954.85;1766182;79;21161;-80
2022/07/06 06:32:22;;;;;;;16.57;8.63;;;;;;;31.12;35.97;99957.41;1777051;79;21178;-80
2022/07/06 06:35:28;;;;;;;15.98;9.30;;;;;;;31.28;34.56;99951.62;1785848;79;21200;-80
2022/07/06 06:38:33;;;;;;;11.03;7.67;;;;;;;31.39;33.98;99947.14;1794885;79;21153;-80
2022/07/06 06:41:39;;;;;;;20.32;8.53;;;;;;;31.47;34.18;99946.34;1800175;79;21858;-80
2022/07/06 06:44:45;;;;;;;17.57;7.50;;;;;;;31.47;33.23;99946.34;1799365;79;21740;-79
2022/07/06 06:47:54;;;;;;;16.23;7.78;;;;;;;31.52;32.63;99949.02;1794744;80;21756;-80
2022/07/06 06:51:00;;;;;;;10.98;6.65;;;;;;;31.55;32.14;99944.14;1801984;79;21871;-80
2022/07/06 06:54:05;;;;;;;14.68;7.00;;;;;;;31.56;32.41;99940.15;1790080;79;21252;-80
2022/07/06 06:57:11;;;;;;;11.78;6.85;;;;;;;31.64;32.53;99942.19;1768451;81;21260;-80
2022/07/06 07:00:17;;;;;;;10.45;6.53;;;;;;;31.72;31.30;99943.39;1768790;81;21181;-80
2022/07/06 07:03:23;;;;;;;18.30;7.30;;;;;;;31.85;32.06;99951.52;1765935;80;21291;-80
2022/07/06 07:06:28;;;;;;;19.98;8.10;;;;;;;32.01;32.07;99942.86;1778251;79;21193;-80
2022/07/06 07:09:34;;;;;;;17.57;7.60;;;;;;;32.11;32.26;99937.47;1788803;79;21524;-81
2022/07/06 07:12:39;;;;;;;13.88;7.50;;;;;;;32.24;32.13;99934.52;1787668;79;22500;-80
2022/07/06 07:15:46;;;;;;;12.85;7.03;;;;;;;32.31;31.62;99939.08;1763497;81;21170;-80
2022/07/06 07:18:44;;;;;;;;;;;;;;;32.40;31.68;99936.89;1781283;80;21204;-80
2022/07/06 07:21:49;;;;;;;12.93;8.03;;;;;;;32.53;32.36;99932.48;1773615;80;20227;-80
2022/07/06 07:24:56;;;;;;;13.55;7.35;;;;;;;32.59;32.17;99929.49;1768867;79;21205;-80
2022/07/06 07:28:03;;;;;;;11.25;7.25;;;;;;;32.60;32.01;99932.56;1769577;79;21224;-80
2022/07/06 07:31:10;;;;;;;10.15;7.28;;;;;;;32.61;32.07;99929.42;1732428;82;21193;-80
2022/07/06 07:34:17;;;;;;;12.47;6.67;;;;;;;32.68;31.58;99929.74;1779714;79;21209;-80
2022/07/06 07:37:25;;;;;;;12.30;7.17;;;;;;;32.70;31.18;99931.67;1790287;80;21193;-81
2022/07/06 07:40:33;;;;;;;10.00;6.70;;;;;;;32.72;30.78;99921.42;1768315;79;21177;-80
2022/07/06 07:43:39;;;;;;;10.20;6.30;;;;;;;32.73;30.68;99929.56;1783843;79;21200;-80
2022/07/06 07:46:45;;;;;;;11.03;6.35;;;;;;;32.79;30.68;99931.09;1768562;79;22423;-80
2022/07/06 07:49:52;;;;;;;14.05;6.12;;;;;;;32.97;30.26;99926.83;1767269;81;21246;-80
2022/07/06 07:52:57;;;;;;;10.32;5.90;;;;;;;33.06;30.57;99931.31;1774255;79;21192;-80
2022/07/06 07:56:03;;;;;;;16.45;5.00;;;;;;;32.99;29.28;99933.02;1765584;79;21189;-80
2022/07/06 07:59:11;;;;;;;12.00;5.30;;;;;;;32.96;28.96;99930.25;1790997;79;21185;-80
2022/07/06 08:02:17;;;;;;;12.45;5.58;;;;;;;33.04;28.96;99937.09;1775612;79;21192;-81
2022/07/06 08:05:22;;;;;;;11.18;4.95;;;;;;;33.13;28.95;99932.23;1776207;80;22229;-80
2022/07/06 08:08:28;;;;;;;6.22;4.58;;;;;;;33.23;28.78;99926.21;1788920;79;21278;-80
2022/07/06 08:11:34;;;;;;;6.35;3.77;;;;;;;33.31;27.88;99925.92;1812630;79;21169;-80
2022/07/06 08:14:39;;;;;;;9.33;4.30;;;;;;;33.42;28.03;99923.58;1813372;79;21181;-80
2022/07/06 08:17:45;;;;;;;9.78;5.22;;;;;;;33.56;28.01;99930.72;1812672;79;21192;-80
2022/07/06 08:20:52;;;;;;;10.03;4.87;;;;;;;33.80;28.05;99933.54;1812598;79;21144;-80
2022/07/06 08:24:00;;;;;;;9.10;4.72;;;;;;;33.79;27.56;99936.14;1807372;79;21802;-80
2022/07/06 08:27:05;;;;;;;11.63;5.78;;;;;;;33.67;27.02;99932.59;1793004;79;21718;-80
2022/07/06 08:30:11;;;;;;;10.15;3.98;;;;;;;33.55;26.77;99926.23;1814062;79;21173;-80
2022/07/06 08:33:16;;;;;;;15.95;4.70;;;;;;;33.43;26.33;99922.43;1813774;79;21168;-80
2022/07/06 08:36:21;;;;;;;6.78;4.28;;;;;;;33.48;26.81;99923.66;1813764;79;21231;-80
2022/07/06 08:39:27;;;;;;;7.28;3.90;;;;;;;33.56;26.62;99922.80;1796041;79;21180;-80
2022/07/06 08:42:40;;;;;;;9.68;4.28;;;;;;;33.60;26.29;99928.05;1799748;79;21185;-80
2022/07/06 08:45:46;;;;;;;11.22;3.45;;;;;;;33.58;25.88;99920.45;1778950;80;21276;-80
2022/07/06 08:48:50;;;;;;;5.37;2.70;;;;;;;33.65;25.39;99922.19;1758631;79;21180;-80
2022/07/06 08:51:57;;;;;;;14.23;4.12;;;;;;;33.71;24.80;99910.89;1788204;79;21168;-80
2022/07/06 08:55:03;;;;;;;4.50;3.20;;;;;;;33.76;24.92;99919.20;1786196;79;21255;-80
2022/07/06 08:58:10;;;;;;;9.68;3.27;;;;;;;33.76;24.76;99919.20;1787066;79;21239;-80
2022/07/06 09:01:16;;;;;;;6.17;3.30;;;;;;;33.85;24.94;99906.99;1777720;80;21886;-80
2022/07/06 09:04:24;;;;;;;5.75;3.62;;;;;;;34.01;24.46;99911.75;1801074;79;21209;-80
2022/07/06 09:07:32;;;;;;;13.80;3.80;;;;;;;34.02;24.60;99907.77;1806539;79;21491;-80
2022/07/06 09:10:39;;;;;;;;;;;;;;;34.05;25.28;99907.05;1779781;79;21561;-80
2022/07/06 09:13:46;;;;;;;8.00;3.60;;;;;;;34.21;24.53;99903.05;1804302;79;20259;-80
2022/07/06 09:16:54;;;;;;;4.62;3.12;;;;;;;34.31;24.39;99902.64;1808835;79;21843;-80
2022/07/06 09:20:00;;;;;;;29.65;4.37;;;;;;;34.28;23.98;99906.16;1783267;79;21842;-80
2022/07/06 09:23:12;;;;;;;4.53;3.27;;;;;;;34.17;24.32;99902.07;1783412;79;21310;-81
2022/07/06 09:26:18;;;;;;;8.15;3.30;;;;;;;34.19;24.41;99908.22;1789959;79;21228;-80
2022/07/06 09:29:18;;;;;;;9.55;3.85;;;;;;;34.21;24.06;99907.30;1755817;80;21882;-80
2022/07/06 09:32:26;;;;;;;4.25;3.20;;;;;;;34.14;23.93;99910.44;1757225;80;21184;-80
2022/07/06 09:35:47;;;;;;;4.37;3.10;;;;;;;34.04;23.92;99901.73;1756753;80;21223;-80
2022/07/06 09:38:52;;;;;;;6.65;3.20;;;;;;;34.06;23.48;99907.88;1780058;80;21193;-80
2022/07/06 09:42:06;;;;;;;5.17;3.27;;;;;;;34.15;23.17;99906.41;1780239;79;21181;-80
2022/07/06 09:45:13;;;;;;;6.40;3.27;;;;;;;34.31;22.96;99903.23;1779823;80;21212;-80
2022/07/06 09:48:24;;;;;;;7.07;3.60;;;;;;;34.51;22.87;99905.27;1757986;80;21208;-80
2022/07/06 09:51:30;;;;;;;9.68;4.12;;;;;;;34.64;22.99;99907.58;1780606;80;21212;-80
2022/07/06 09:54:37;;;;;;;5.90;3.60;;;;;;;34.50;22.90;99909.87;1756712;80;21188;-80
2022/07/06 09:57:43;;;;;;;9.68;4.47;;;;;;;34.33;23.05;99896.60;1780180;80;21193;-80
2022/07/06 10:00:52;;;;;;;23.02;5.22;;;;;;;34.33;23.33;99886.67;1745258;82;21279;-81
2022/07/06 10:03:58;;;;;;;5.90;4.53;;;;;;;34.31;24.85;99894.12;1744112;82;21209;-81
2022/07/06 10:06:57;;;;;;;7.78;4.50;;;;;;;34.35;24.23;99892.84;1743848;82;21212;-81
2022/07/06 10:10:03;;;;;;;12.90;5.15;;;;;;;34.31;24.53;99889.86;1745544;82;21244;-81
2022/07/06 10:13:10;;;;;;;11.85;4.25;;;;;;;34.37;24.59;99886.81;1727657;83;21192;-81
2022/07/06 10:16:16;;;;;;;12.07;4.45;;;;;;;34.50;25.38;99882.91;1727170;83;21750;-81
2022/07/06 10:19:23;;;;;;;7.00;4.83;;;;;;;34.72;24.35;99884.52;1728369;83;21149;-80
2022/07/06 10:22:30;;;;;;;9.65;4.97;;;;;;;34.83;24.21;99890.86;1745869;82;21180;-80
2022/07/06 10:25:36;;;;;;;12.65;5.72;;;;;;;34.91;24.13;99883.41;1744997;82;21232;-81
2022/07/06 10:28:41;;;;;;;9.53;5.17;;;;;;;34.97;23.33;99878.40;1744933;82;22648;-81
2022/07/06 10:31:53;;;;;;;15.05;5.33;;;;;;;34.87;23.48;99881.66;1745154;82;21748;-80
2022/07/06 10:34:59;;;;;;;10.43;5.30;;;;;;;34.87;23.75;99878.81;1745720;82;21245;-81
2022/07/06 10:38:13;;;;;;;6.83;4.53;;;;;;;34.94;23.88;99879.88;1747167;82;21236;-81
2022/07/06 10:41:19;;;;;;;10.78;4.65;;;;;;;35.03;23.41;99867.87;1748438;80;21238;-80
2022/07/06 10:44:30;;;;;;;15.20;4.80;;;;;;;35.31;23.63;99867.22;1747275;82;21178;-81
2022/07/06 10:47:37;;;;;;;14.45;5.00;;;;;;;35.31;23.63;99867.22;1745559;82;21648;-80
2022/07/06 10:50:45;;;;;;;19.15;5.00;;;;;;;35.45;24.01;99863.45;1746832;82;21186;-80
2022/07/06 10:53:50;;;;;;;;;;;;;;;35.54;23.58;99866.22;1749211;82;21198;-80
2022/07/06 10:56:57;;;;;;;8.30;5.05;;;;;;;35.51;24.12;99856.36;1745950;82;20228;-80
2022/07/06 11:00:14;;;;;;;12.28;5.70;;;;;;;35.45;23.51;99856.34;1745837;82;21224;-80
2022/07/06 11:03:42;;;;;;;7.08;4.55;;;;;;;35.46;23.09;99850.09;1746927;82;21239;-80
2022/07/06 11:06:47;;;;;;;9.83;5.05;;;;;;;35.32;23.16;99851.22;1745659;82;21795;-80
2022/07/06 11:10:06;;;;;;;7.35;5.08;;;;;;;35.20;23.02;99846.96;1745199;82;21759;-80
2022/07/06 11:13:11;;;;;;;13.98;4.67;;;;;;;35.19;23.44;99835.33;1745224;82;21267;-80
2022/07/06 11:16:18;;;;;;;6.75;4.87;;;;;;;35.30;23.31;99832.28;1744996;82;21763;-80
2022/07/06 11:19:28;;;;;;;7.53;4.90;;;;;;;35.33;23.68;99834.99;1744949;82;21203;-80
2022/07/06 11:22:35;;;;;;;7.85;4.92;;;;;;;35.20;23.17;99829.91;1744376;82;21244;-80
2022/07/06 11:25:41;;;;;;;8.88;5.40;;;;;;;35.05;23.37;99834.83;1724318;82;21741;-80
2022/07/06 11:28:47;;;;;;;12.00;5.37;;;;;;;35.07;23.28;99829.64;1745068;82;21188;-80
2022/07/06 11:31:54;;;;;;;13.70;5.92;;;;;;;34.95;23.25;99821.05;1745271;82;21744;-80
2022/07/06 11:35:00;;;;;;;8.05;5.30;;;;;;;34.83;23.14;99828.37;1743593;82;21208;-80
2022/07/06 11:38:06;;;;;;;13.85;6.40;;;;;;;34.74;23.78;99822.54;1743419;82;21240;-80
2022/07/06 11:41:14;;;;;;;8.95;5.08;;;;;;;34.74;23.29;99823.36;1744512;82;21256;-80
2022/07/06 11:44:20;;;;;;;11.00;6.22;;;;;;;34.80;23.64;99820.53;1744394;82;21232;-80
2022/07/06 11:47:26;;;;;;;13.25;5.83;;;;;;;34.90;23.98;99811.33;1743903;82;21224;-80
2022/07/06 11:50:32;;;;;;;10.53;5.83;;;;;;;34.94;23.41;99809.45;1744634;82;21172;-79
2022/07/06 11:53:34;;;;;;;12.53;5.50;;;;;;;34.86;23.81;99811.79;1744676;82;21259;-80
2022/07/06 11:56:41;;;;;;;9.10;4.75;;;;;;;34.80;23.43;99812.61;1745452;82;21189;-80
2022/07/06 11:59:48;;;;;;;11.68;5.90;;;;;;;34.72;23.46;99813.52;1743939;82;21264;-80
2022/07/06 12:03:09;;;;;;;9.28;5.90;;;;;;;34.61;23.49;99803.80;1745412;82;21232;-80
2022/07/06 12:06:23;;;;;;;11.12;4.70;;;;;;;34.54;23.57;99793.02;1745357;82;21193;-80
2022/07/06 12:09:28;;;;;;;9.78;5.10;;;;;;;34.60;23.70;99798.70;1742685;82;21232;-80
2022/07/06 12:12:34;;;;;;;10.58;5.25;;;;;;;34.61;23.66;99800.36;1742936;82;21720;-80
2022/07/06 12:15:39;;;;;;;12.30;5.87;;;;;;;34.59;23.79;99795.64;1745165;82;21205;-80
2022/07/06 12:18:47;;;;;;;12.75;5.60;;;;;;;34.60;23.99;99797.29;1744037;82;21188;-80
2022/07/06 12:21:57;;;;;;;14.60;6.15;;;;;;;34.63;24.36;99790.92;1745064;82;21243;-80
2022/07/06 12:25:03;;;;;;;8.98;5.47;;;;;;;34.74;24.43;99790.70;1745092;82;21252;-80
2022/07/06 12:28:09;;;;;;;10.15;5.67;;;;;;;34.83;24.28;99795.70;1744607;82;21228;-80
2022/07/06 12:31:14;;;;;;;9.35;5.53;;;;;;;34.96;24.10;99790.05;1745565;82;21180;-80
2022/07/06 12:34:36;;;;;;;9.88;6.10;;;;;;;35.04;23.55;99785.70;1745466;82;21192;-80
2022/07/06 12:37:42;;;;;;;7.47;5.30;;;;;;;35.10;23.76;99786.29;1744979;82;21176;-80
2022/07/06 12:40:48;;;;;;;14.03;5.90;;;;;;;35.14;24.02;99782.16;1745270;82;21204;-80
2022/07/06 12:43:54;;;;;;;11.30;6.03;;;;;;;35.13;23.82;99781.33;1745170;82;21200;-80
2022/07/06 12:47:13;;;;;;;11.25;5.92;;;;;;;35.12;24.04;99781.70;1745193;82;21240;-80
2022/07/06 12:50:19;;;;;;;10.75;5.45;;;;;;;35.09;23.90;99777.53;1746114;82;21197;-80
2022/07/06 12:53:34;;;;;;;8.85;5.45;;;;;;;35.00;23.53;99771.95;1744807;82;21894;-80
2022/07/06 12:56:41;;;;;;;12.82;5.35;;;;;;;34.88;23.93;99773.94;1743696;82;21209;-80
2022/07/06 12:59:49;;;;;;;16.17;6.10;;;;;;;34.76;24.42;99768.45;1743897;82;21224;-80
2022/07/06 13:02:58;;;;;;;17.35;5.70;;;;;;;34.62;24.61;99772.20;1745113;82;22441;-80
2022/07/06 13:06:06;;;;;;;8.50;5.15;;;;;;;34.49;24.96;99767.66;1745298;82;21732;-80
2022/07/06 13:09:14;;;;;;;12.80;4.97;;;;;;;34.34;25.07;99760.00;1742919;82;21205;-80
2022/07/06 13:12:20;;;;;;;18.30;5.83;;;;;;;34.21;24.97;99757.48;1739884;82;21236;-80
2022/07/06 13:15:27;;;;;;;9.03;5.53;;;;;;;34.11;24.94;99758.72;1739672;82;21245;-80
2022/07/06 13:18:33;;;;;;;11.28;5.22;;;;;;;34.09;24.96;99751.16;1738209;82;21240;-80
2022/07/06 13:21:39;;;;;;;7.90;5.67;;;;;;;34.09;25.32;99749.73;1739626;82;21252;-80
2022/07/06 13:24:46;;;;;;;8.38;5.00;;;;;;;34.06;24.90;99741.91;1738764;82;21224;-80
2022/07/06 13:27:51;;;;;;;10.20;4.97;;;;;;;34.05;25.21;99744.51;1739697;82;21224;-80
2022/07/06 13:30:56;;;;;;;11.55;5.45;;;;;;;34.07;25.19;99739.33;1738276;82;21165;-80
2022/07/06 13:34:04;;;;;;;10.03;5.35;;;;;;;34.16;24.90;99735.83;1738296;82;21232;-80
2022/07/06 13:37:10;;;;;;;10.90;6.25;;;;;;;34.16;24.82;99730.72;1738245;82;21189;-80
2022/07/06 13:40:17;;;;;;;16.35;6.20;;;;;;;34.16;25.03;99728.73;1739205;82;21272;-80
2022/07/06 13:43:23;;;;;;;9.08;6.12;;;;;;;34.18;25.18;99732.04;1739512;82;21244;-80
2022/07/06 13:46:30;;;;;;;11.88;6.72;;;;;;;34.18;24.66;99726.36;1738275;82;21197;-80
2022/07/06 13:49:36;;;;;;;12.33;6.47;;;;;;;34.15;24.85;99732.73;1738702;82;21811;-80
2022/07/06 13:52:42;;;;;;;15.03;6.17;;;;;;;34.11;24.87;99736.02;1739728;82;21200;-80
2022/07/06 13:55:47;;;;;;;14.50;6.30;;;;;;;34.10;25.07;99721.59;1739450;82;21776;-80
2022/07/06 13:58:53;;;;;;;9.60;5.25;;;;;;;34.08;25.37;99722.55;1738905;82;21212;-80
2022/07/06 14:01:59;;;;;;;12.03;6.60;;;;;;;34.10;25.63;99717.34;1738971;82;21179;-79
2022/07/06 14:05:06;;;;;;;15.28;7.08;;;;;;;34.12;25.98;99718.42;1738516;82;21196;-80
2022/07/06 14:08:12;;;;;;;12.10;7.03;;;;;;;34.12;25.64;99721.27;1738417;82;21242;-79
2022/07/06 14:11:18;;;;;;;15.85;6.12;;;;;;;34.03;25.36;99715.66;1738621;81;21209;-80
2022/07/06 14:14:24;;;;;;;26.77;7.30;;;;;;;33.93;25.63;99718.90;1741585;82;21240;-80
2022/07/06 14:17:30;;;;;;;11.30;6.50;;;;;;;33.90;25.71;99716.75;1741624;82;21178;-80
2022/07/06 14:20:36;;;;;;;13.38;6.42;;;;;;;33.86;25.68;99715.19;1740621;82;21278;-80
2022/07/06 14:23:42;;;;;;;11.97;6.70;;;;;;;33.83;25.92;99712.47;1741672;82;21199;-80
2022/07/06 14:26:48;;;;;;;11.93;5.40;;;;;;;33.79;25.76;99708.66;1741371;82;21248;-80
2022/07/06 14:29:54;;;;;;;10.53;5.40;;;;;;;33.78;25.48;99707.57;1740011;82;21266;-80
2022/07/06 14:32:59;;;;;;;13.53;5.87;;;;;;;33.69;25.67;99707.66;1739939;82;21198;-80